createdAt,value
2018-09-17T00:00:25.246Z,14.67
2018-09-17T00:02:52.990Z,14.69
2018-09-17T00:05:21.880Z,14.73
2018-09-17T00:07:50.199Z,14.77
2018-09-17T00:10:18.516Z,14.83
2018-09-17T00:12:46.825Z,14.89
2018-09-17T00:15:15.144Z,14.92
2018-09-17T00:17:42.889Z,14.97
2018-09-17T00:20:11.788Z,14.97
2018-09-17T00:22:39.526Z,15.03
2018-09-17T00:25:07.841Z,15.08
2018-09-17T00:27:36.158Z,15.12
2018-09-17T00:30:06.265Z,15.15
2018-09-17T00:32:33.380Z,15.15
2018-09-17T00:35:01.119Z,15.18
2018-09-17T00:37:29.427Z,15.19
2018-09-17T00:39:58.321Z,15.18
2018-09-17T00:42:26.058Z,15.21
2018-09-17T00:44:54.969Z,15.21
2018-09-17T00:47:23.280Z,15.28
2018-09-17T00:49:51.597Z,15.27
2018-09-17T00:52:20.030Z,15.23
2018-09-17T00:54:48.359Z,15.24
2018-09-17T00:57:16.705Z,15.24
2018-09-17T00:59:44.439Z,15.24
2018-09-17T01:02:13.330Z,15.26
2018-09-17T01:04:41.652Z,15.28
2018-09-17T01:07:09.385Z,15.28
2018-09-17T01:09:37.706Z,15.29
2018-09-17T01:12:06.601Z,15.29
2018-09-17T01:14:34.337Z,15.32
2018-09-17T01:17:02.653Z,15.31
2018-09-17T01:19:30.973Z,15.31
2018-09-17T01:21:59.286Z,15.33
2018-09-17T01:24:27.604Z,15.31
2018-09-17T01:26:55.922Z,15.31
2018-09-17T01:29:24.238Z,15.30
2018-09-17T01:31:53.124Z,15.28
2018-09-17T01:34:20.866Z,15.28
2018-09-17T01:36:49.756Z,15.28
2018-09-17T01:39:18.076Z,15.28
2018-09-17T01:41:46.387Z,15.26
2018-09-17T01:44:14.706Z,15.28
2018-09-17T01:46:43.017Z,15.28
2018-09-17T01:49:11.339Z,15.26
2018-09-17T01:51:39.660Z,15.28
2018-09-17T01:54:07.402Z,15.30
2018-09-17T01:56:36.306Z,15.32
2018-09-17T01:59:04.624Z,15.35
2018-09-17T02:01:32.931Z,15.37
2018-09-17T02:04:00.724Z,15.37
2018-09-17T02:06:29.590Z,15.41
2018-09-17T02:08:57.345Z,15.41
2018-09-17T02:11:26.216Z,15.43
2018-09-17T02:13:54.537Z,15.44
2018-09-17T02:16:22.853Z,15.45
2018-09-17T02:18:51.164Z,15.49
2018-09-17T02:21:18.900Z,15.51
2018-09-17T02:23:47.701Z,15.52
2018-09-17T02:26:15.532Z,15.55
2018-09-17T02:28:43.858Z,15.56
2018-09-17T02:31:12.165Z,15.59
2018-09-17T02:33:41.062Z,15.61
2018-09-17T02:36:08.798Z,15.62
2018-09-17T02:38:37.693Z,15.67
2018-09-17T02:41:06.001Z,15.71
2018-09-17T02:43:33.751Z,15.77
2018-09-17T02:46:02.651Z,15.81
2018-09-17T02:48:30.955Z,15.82
2018-09-17T02:50:58.690Z,15.84
2018-09-17T02:53:27.657Z,15.87
2018-09-17T02:55:55.907Z,15.88
2018-09-17T02:58:24.222Z,15.93
2018-09-17T03:00:51.983Z,15.95
2018-09-17T03:03:20.881Z,16.00
2018-09-17T03:05:48.620Z,16.02
2018-09-17T03:08:17.520Z,16.04
2018-09-17T03:10:45.836Z,16.08
2018-09-17T03:13:13.584Z,16.09
2018-09-17T03:15:45.168Z,16.11
2018-09-17T03:18:13.489Z,16.12
2018-09-17T03:20:41.229Z,16.14
2018-09-17T03:23:09.550Z,16.17
2018-09-17T03:25:38.451Z,16.22
2018-09-17T03:28:06.197Z,16.21
2018-09-17T03:30:35.128Z,16.25
2018-09-17T03:33:03.450Z,16.30
2018-09-17T03:35:31.767Z,16.32
2018-09-17T03:38:00.084Z,16.34
2018-09-17T03:40:28.409Z,16.38
2018-09-17T03:42:56.728Z,16.40
2018-09-17T03:45:24.463Z,16.42
2018-09-17T03:47:52.801Z,16.44
2018-09-17T03:50:21.676Z,16.44
2018-09-17T03:52:49.993Z,16.47
2018-09-17T03:55:18.310Z,16.47
2018-09-17T03:57:46.630Z,16.49
2018-09-17T04:00:14.381Z,16.52
2018-09-17T04:02:43.308Z,16.52
2018-09-17T04:05:11.617Z,16.55
2018-09-17T04:07:39.477Z,16.57
2018-09-17T04:10:07.670Z,16.54
2018-09-17T04:12:35.982Z,16.57
2018-09-17T04:15:04.874Z,16.57
2018-09-17T04:17:33.198Z,16.60
2018-09-17T04:20:01.511Z,16.61
2018-09-17T04:22:29.841Z,16.61
2018-09-17T04:24:58.151Z,16.62
2018-09-17T04:27:26.470Z,16.62
2018-09-17T04:29:54.209Z,16.63
2018-09-17T04:32:23.099Z,16.61
2018-09-17T04:34:51.423Z,16.65
2018-09-17T04:37:19.752Z,16.67
2018-09-17T04:39:47.553Z,16.66
2018-09-17T04:42:16.382Z,16.66
2018-09-17T04:44:44.136Z,16.67
2018-09-17T04:47:12.450Z,16.67
2018-09-17T04:49:41.349Z,16.68
2018-09-17T04:52:09.688Z,16.68
2018-09-17T04:54:37.505Z,16.69
2018-09-17T04:57:06.323Z,16.72
2018-09-17T04:59:34.637Z,16.71
2018-09-17T05:02:02.955Z,16.74
2018-09-17T05:04:31.309Z,16.73
2018-09-17T05:06:59.046Z,16.74
2018-09-17T05:09:28.100Z,16.74
2018-09-17T05:11:56.633Z,16.75
2018-09-17T05:14:24.965Z,16.76
2018-09-17T05:16:53.281Z,16.77
2018-09-17T05:19:21.374Z,16.76
2018-09-17T05:21:49.936Z,16.78
2018-09-17T05:24:17.469Z,16.77
2018-09-17T05:26:46.402Z,16.81
2018-09-17T05:29:15.796Z,16.83
2018-09-17T05:31:44.143Z,16.86
2018-09-17T05:34:11.893Z,16.92
2018-09-17T05:36:40.810Z,16.98
2018-09-17T05:39:08.562Z,17.04
2018-09-17T05:41:36.885Z,17.15
2018-09-17T05:44:05.790Z,17.18
2018-09-17T05:46:33.583Z,17.23
2018-09-17T05:49:02.417Z,17.28
2018-09-17T05:51:30.755Z,17.26
2018-09-17T05:53:59.073Z,17.32
2018-09-17T05:56:27.395Z,17.33
2018-09-17T05:58:55.140Z,17.40
2018-09-17T06:01:23.537Z,17.41
2018-09-17T06:03:52.457Z,17.48
2018-09-17T06:06:20.803Z,17.51
2018-09-17T06:08:49.118Z,17.54
2018-09-17T06:11:16.905Z,17.53
2018-09-17T06:13:45.773Z,17.57
2018-09-17T06:16:13.507Z,17.66
2018-09-17T06:18:41.835Z,17.72
2018-09-17T06:21:10.769Z,17.71
2018-09-17T06:23:38.513Z,17.74
2018-09-17T06:26:07.413Z,17.78
2018-09-17T06:28:35.808Z,17.84
2018-09-17T06:31:04.104Z,17.91
2018-09-17T06:33:31.838Z,17.98
2018-09-17T06:36:01.141Z,18.00
2018-09-17T06:38:28.887Z,18.07
2018-09-17T06:40:57.783Z,18.16
2018-09-17T06:43:26.101Z,18.23
2018-09-17T06:45:53.841Z,18.28
2018-09-17T06:48:22.790Z,18.32
2018-09-17T06:50:51.323Z,18.37
2018-09-17T06:53:19.079Z,18.36
2018-09-17T06:55:48.017Z,18.38
2018-09-17T06:58:16.321Z,18.46
2018-09-17T07:00:44.070Z,18.51
2018-09-17T07:03:12.973Z,18.60
2018-09-17T07:05:41.306Z,18.69
2018-09-17T07:08:09.080Z,18.75
2018-09-17T07:10:38.000Z,18.78
2018-09-17T07:13:05.746Z,18.81
2018-09-17T07:15:34.681Z,18.91
2018-09-17T07:18:03.033Z,18.94
2018-09-17T07:20:31.326Z,19.01
2018-09-17T07:22:59.683Z,19.07
2018-09-17T07:25:28.025Z,19.08
2018-09-17T07:27:56.348Z,19.09
2018-09-17T07:30:24.109Z,19.06
2018-09-17T07:32:53.025Z,19.09
2018-09-17T07:35:21.355Z,19.17
2018-09-17T07:37:49.096Z,19.17
2018-09-17T07:40:17.414Z,19.21
2018-09-17T07:42:46.730Z,19.18
2018-09-17T07:45:15.020Z,19.22
2018-09-17T07:47:43.352Z,19.35
2018-09-17T07:50:11.728Z,19.43
2018-09-17T07:52:40.071Z,19.47
2018-09-17T07:55:08.725Z,19.48
2018-09-17T07:57:37.839Z,19.45
2018-09-17T08:00:05.655Z,19.47
2018-09-17T08:02:34.496Z,19.56
2018-09-17T08:05:22.052Z,19.67
2018-09-17T08:07:51.251Z,19.84
2018-09-17T08:10:19.543Z,20.02
2018-09-17T08:12:47.874Z,20.20
2018-09-17T08:15:16.236Z,20.37
2018-09-17T08:17:44.551Z,20.51
2018-09-17T08:20:12.916Z,20.52
2018-09-17T08:22:40.645Z,20.52
2018-09-17T08:25:09.559Z,20.54
2018-09-17T08:27:37.880Z,20.57
2018-09-17T08:30:06.200Z,20.70
2018-09-17T08:32:34.522Z,20.78
2018-09-17T08:35:02.314Z,20.86
2018-09-17T08:37:31.285Z,21.03
2018-09-17T08:39:59.681Z,21.14
2018-09-17T08:42:28.057Z,21.24
2018-09-17T08:44:55.795Z,21.24
2018-09-17T08:47:24.728Z,21.24
2018-09-17T08:49:53.140Z,21.22
2018-09-17T08:52:21.520Z,21.18
2018-09-17T08:54:49.809Z,21.21
2018-09-17T08:57:18.212Z,21.25
2018-09-17T08:59:46.600Z,21.30
2018-09-17T09:02:14.381Z,21.38
2018-09-17T09:04:42.702Z,21.44
2018-09-17T09:07:11.025Z,21.57
2018-09-17T09:09:39.925Z,21.63
2018-09-17T09:12:07.693Z,21.69
2018-09-17T09:14:36.600Z,21.64
2018-09-17T09:17:04.921Z,21.74
2018-09-17T09:19:33.259Z,21.76
2018-09-17T09:22:00.983Z,21.81
2018-09-17T09:24:29.880Z,21.90
2018-09-17T09:26:58.202Z,22.00
2018-09-17T09:29:26.537Z,22.15
2018-09-17T09:31:54.847Z,22.27
2018-09-17T09:34:23.172Z,22.32
2018-09-17T09:36:51.491Z,22.34
2018-09-17T09:39:19.225Z,22.34
2018-09-17T09:41:47.544Z,22.43
2018-09-17T09:44:15.863Z,22.53
2018-09-17T09:46:44.773Z,22.61
2018-09-17T09:49:13.099Z,22.69
2018-09-17T09:51:40.847Z,22.68
2018-09-17T09:54:09.760Z,22.69
2018-09-17T09:56:37.497Z,22.74
2018-09-17T09:59:06.401Z,22.68
2018-09-17T10:01:34.642Z,22.58
2018-09-17T10:04:03.097Z,22.61
2018-09-17T10:06:31.421Z,22.61
2018-09-17T10:08:59.741Z,22.69
2018-09-17T10:11:29.322Z,22.84
2018-09-17T10:13:59.466Z,22.94
2018-09-17T10:16:27.796Z,22.87
2018-09-17T10:19:01.065Z,22.93
2018-09-17T10:21:30.006Z,22.92
2018-09-17T10:23:58.338Z,23.05
2018-09-17T10:26:26.067Z,23.03
2018-09-17T10:28:54.390Z,23.04
2018-09-17T10:31:23.303Z,22.94
2018-09-17T10:33:51.036Z,22.87
2018-09-17T10:36:19.936Z,22.88
2018-09-17T10:38:48.257Z,22.90
2018-09-17T10:41:16.577Z,22.98
2018-09-17T10:43:44.898Z,23.09
2018-09-17T10:46:12.637Z,23.18
2018-09-17T10:48:40.966Z,23.21
2018-09-17T10:51:09.290Z,23.32
2018-09-17T10:53:37.628Z,23.40
2018-09-17T10:56:06.546Z,23.58
2018-09-17T10:58:34.861Z,23.70
2018-09-17T11:01:03.196Z,23.80
2018-09-17T11:03:31.523Z,23.82
2018-09-17T11:05:59.841Z,23.92
2018-09-17T11:08:28.163Z,23.91
2018-09-17T11:10:56.496Z,23.92
2018-09-17T11:13:24.820Z,23.98
2018-09-17T11:15:52.595Z,24.02
2018-09-17T11:18:20.920Z,24.10
2018-09-17T11:20:49.833Z,24.17
2018-09-17T11:23:18.182Z,24.18
2018-09-17T11:25:46.502Z,24.15
2018-09-17T11:28:14.825Z,24.30
2018-09-17T11:30:42.561Z,24.50
2018-09-17T11:33:10.881Z,24.74
2018-09-17T11:35:39.791Z,24.88
2018-09-17T11:38:08.106Z,24.90
2018-09-17T11:40:36.425Z,25.07
2018-09-17T11:43:04.747Z,25.13
2018-09-17T11:45:33.075Z,25.26
2018-09-17T11:48:01.388Z,24.97
2018-09-17T11:50:29.130Z,24.87
2018-09-17T11:52:58.033Z,24.84
2018-09-17T11:55:25.832Z,24.95
2018-09-17T11:57:54.674Z,25.07
2018-09-17T12:00:22.415Z,25.06
2018-09-17T12:02:50.755Z,25.03
2018-09-17T12:05:19.652Z,25.19
2018-09-17T12:07:47.389Z,25.27
2018-09-17T12:10:16.309Z,25.39
2018-09-17T12:12:44.631Z,25.47
2018-09-17T12:15:12.951Z,25.65
2018-09-17T12:17:40.757Z,25.86
2018-09-17T12:20:09.667Z,25.88
2018-09-17T12:22:37.999Z,25.88
2018-09-17T12:25:05.743Z,25.99
2018-09-17T12:27:34.644Z,26.14
2018-09-17T12:30:02.963Z,26.30
2018-09-17T12:32:31.280Z,26.24
2018-09-17T12:34:59.596Z,26.06
2018-09-17T12:37:27.349Z,26.08
2018-09-17T12:39:56.249Z,26.12
2018-09-17T12:42:24.579Z,26.16
2018-09-17T12:44:52.951Z,26.19
2018-09-17T12:47:21.225Z,26.29
2018-09-17T12:49:48.963Z,26.38
2018-09-17T12:52:17.945Z,26.36
2018-09-17T12:54:46.273Z,26.39
2018-09-17T12:57:14.625Z,26.51
2018-09-17T12:59:42.931Z,26.51
2018-09-17T13:02:10.688Z,26.33
2018-09-17T13:04:39.599Z,26.15
2018-09-17T13:07:07.348Z,25.86
2018-09-17T13:09:35.670Z,25.86
2018-09-17T13:12:04.585Z,25.95
2018-09-17T13:14:32.326Z,25.98
2018-09-17T13:17:01.266Z,25.83
2018-09-17T13:19:29.628Z,25.41
2018-09-17T13:21:57.960Z,25.23
2018-09-17T13:24:26.288Z,25.13
2018-09-17T13:26:54.047Z,25.16
2018-09-17T13:29:22.946Z,25.26
2018-09-17T13:31:51.514Z,25.28
2018-09-17T13:34:19.644Z,25.25
2018-09-17T13:36:47.989Z,25.21
2018-09-17T13:39:16.792Z,25.00
2018-09-17T13:41:45.438Z,24.96
2018-09-17T13:44:13.792Z,25.01
2018-09-17T13:46:42.158Z,25.01
2018-09-17T13:49:10.447Z,24.99
2018-09-17T13:51:39.156Z,25.12
2018-09-17T13:54:07.824Z,25.28
2018-09-17T13:56:38.417Z,25.44
2018-09-17T13:59:06.759Z,25.52
2018-09-17T14:01:35.528Z,25.59
2018-09-17T14:04:03.868Z,25.51
2018-09-17T14:06:32.866Z,25.64
2018-09-17T14:09:00.606Z,25.76
2018-09-17T14:11:29.511Z,25.85
2018-09-17T14:13:57.849Z,25.92
2018-09-17T14:16:26.182Z,25.99
2018-09-17T14:18:54.518Z,26.07
2018-09-17T14:21:22.880Z,26.17
2018-09-17T14:23:51.462Z,26.30
2018-09-17T14:26:20.551Z,26.38
2018-09-17T14:28:48.730Z,26.32
2018-09-17T14:31:17.047Z,26.60
2018-09-17T14:33:44.798Z,26.70
2018-09-17T14:36:13.707Z,26.67
2018-09-17T14:38:42.043Z,26.44
2018-09-17T14:41:10.375Z,26.40
2018-09-17T14:43:38.214Z,26.66
2018-09-17T14:46:07.047Z,26.83
2018-09-17T14:48:35.359Z,26.88
2018-09-17T14:51:03.125Z,26.62
2018-09-17T14:53:32.136Z,26.88
2018-09-17T14:56:00.281Z,27.12
2018-09-17T14:58:29.167Z,27.21
2018-09-17T15:00:57.513Z,27.34
2018-09-17T15:03:25.811Z,27.46
2018-09-17T15:05:54.136Z,27.37
2018-09-17T15:08:22.561Z,27.27
2018-09-17T15:10:50.256Z,27.07
2018-09-17T15:13:19.161Z,26.87
2018-09-17T15:15:47.437Z,26.52
2018-09-17T15:18:15.310Z,26.30
2018-09-17T15:20:44.200Z,25.91
2018-09-17T15:23:12.548Z,25.61
2018-09-17T15:25:40.870Z,25.30
2018-09-17T15:28:09.210Z,24.94
2018-09-17T15:30:36.925Z,24.81
2018-09-17T15:33:05.239Z,24.78
2018-09-17T15:35:34.366Z,24.72
2018-09-17T15:38:01.922Z,24.57
2018-09-17T15:40:30.299Z,24.40
2018-09-17T15:42:59.095Z,24.24
2018-09-17T15:45:27.415Z,24.10
2018-09-17T15:47:55.725Z,24.03
2018-09-17T15:50:24.044Z,23.89
2018-09-17T15:52:52.360Z,23.85
2018-09-17T15:55:20.666Z,23.73
2018-09-17T15:57:49.030Z,23.63
2018-09-17T16:00:17.521Z,23.51
2018-09-17T16:02:45.617Z,23.44
2018-09-17T16:05:13.393Z,23.40
2018-09-17T16:07:42.298Z,23.33
2018-09-17T16:10:10.640Z,23.28
2018-09-17T16:12:38.989Z,23.14
2018-09-17T16:15:07.361Z,23.10
2018-09-17T16:17:35.100Z,23.02
2018-09-17T16:20:04.136Z,22.86
2018-09-17T16:22:32.365Z,22.70
2018-09-17T16:25:00.546Z,22.55
2018-09-17T16:27:29.500Z,22.35
2018-09-17T16:29:57.256Z,22.14
2018-09-17T16:32:25.825Z,21.98
2018-09-17T16:34:54.887Z,21.85
2018-09-17T16:37:23.229Z,21.74
2018-09-17T16:39:51.571Z,21.58
2018-09-17T16:42:19.934Z,21.48
2018-09-17T16:44:55.645Z,21.37
2018-09-17T16:47:24.580Z,21.29
2018-09-17T16:49:52.934Z,21.21
2018-09-17T16:52:21.282Z,21.17
2018-09-17T16:54:53.579Z,21.07
2018-09-17T16:57:22.045Z,20.90
2018-09-17T16:59:50.425Z,20.82
2018-09-17T17:02:18.753Z,20.72
2018-09-17T17:04:46.564Z,20.61
2018-09-17T17:07:20.096Z,20.52
2018-09-17T17:09:49.077Z,20.48
2018-09-17T17:12:15.309Z,20.40
2018-09-17T17:17:51.007Z,20.32
2018-09-17T17:20:09.195Z,20.29
2018-09-17T17:22:37.811Z,20.28
2018-09-17T17:25:07.207Z,20.22
2018-09-17T17:27:36.431Z,20.18
2018-09-17T17:30:04.898Z,20.10
2018-09-17T17:32:33.232Z,20.03
2018-09-17T17:35:01.559Z,20.00
2018-09-17T17:37:30.275Z,19.98
2018-09-17T17:39:58.169Z,19.99
2018-09-17T17:42:27.732Z,19.99
2018-09-17T17:44:55.713Z,20.05
2018-09-17T17:47:24.318Z,20.12
2018-09-17T17:49:52.996Z,20.18
2018-09-17T17:52:21.328Z,20.24
2018-09-17T17:54:49.641Z,20.28
2018-09-17T17:57:17.439Z,20.33
2018-09-17T17:59:46.332Z,20.38
2018-09-17T18:02:14.102Z,20.40
2018-09-17T18:04:43.023Z,20.37
2018-09-17T18:07:10.978Z,20.34
2018-09-17T18:09:39.757Z,20.28
2018-09-17T18:12:08.172Z,20.24
2018-09-17T18:14:36.514Z,20.22
2018-09-17T18:17:04.282Z,20.22
2018-09-17T18:19:33.210Z,20.20
2018-09-17T18:22:01.564Z,20.13
2018-09-17T18:24:29.351Z,20.07
2018-09-17T18:26:58.381Z,20.02
2018-09-17T18:29:27.694Z,19.98
2018-09-17T18:31:56.044Z,19.94
2018-09-17T18:34:24.160Z,19.87
2018-09-17T18:36:52.548Z,19.66
2018-09-17T18:39:21.495Z,19.44
2018-09-17T18:41:49.763Z,19.24
2018-09-17T18:44:18.124Z,19.06
2018-09-17T18:46:46.468Z,19.02
2018-09-17T18:49:14.803Z,19.07
2018-09-17T18:51:43.144Z,19.14
2018-09-17T18:54:11.509Z,19.20
2018-09-17T18:56:39.293Z,19.25
2018-09-17T18:59:08.206Z,19.31
2018-09-17T19:01:36.540Z,19.35
2018-09-17T19:04:04.384Z,19.36
2018-09-17T19:06:32.622Z,19.35
2018-09-17T19:09:01.631Z,19.29
2018-09-17T19:11:31.141Z,19.27
2018-09-17T19:13:58.455Z,19.21
2018-09-17T19:16:26.790Z,19.19
2018-09-17T19:18:55.108Z,19.19
2018-09-17T19:21:22.898Z,19.21
2018-09-17T19:23:51.833Z,19.20
2018-09-17T19:26:20.241Z,19.15
2018-09-17T19:28:50.618Z,19.13
2018-09-17T19:31:18.739Z,19.12
2018-09-17T19:33:46.555Z,19.09
2018-09-17T19:36:15.492Z,19.08
2018-09-17T19:38:44.547Z,19.09
2018-09-17T19:41:12.880Z,19.06
2018-09-17T19:43:40.686Z,19.00
2018-09-17T19:46:11.960Z,18.93
2018-09-17T19:48:40.663Z,18.81
2018-09-17T19:51:08.683Z,18.74
2018-09-17T19:53:37.558Z,18.73
2018-09-17T19:56:05.938Z,18.73
2018-09-17T19:58:39.159Z,18.70
2018-09-17T20:01:07.517Z,18.70
2018-09-17T20:03:35.851Z,18.65
2018-09-17T20:06:03.606Z,18.63
2018-09-17T20:08:31.940Z,18.59
2018-09-17T20:11:00.868Z,18.58
2018-09-17T20:13:29.197Z,18.39
2018-09-17T20:15:57.549Z,18.11
2018-09-17T20:18:25.992Z,17.93
2018-09-17T20:20:54.327Z,17.93
2018-09-17T20:23:22.659Z,17.92
2018-09-17T20:25:50.983Z,17.87
2018-09-17T20:28:19.311Z,17.82
2018-09-17T20:30:47.911Z,17.75
2018-09-17T20:33:15.665Z,17.73
2018-09-17T20:35:43.781Z,17.73
2018-09-17T20:38:12.747Z,17.78
2018-09-17T20:40:41.064Z,17.73
2018-09-17T20:43:09.434Z,17.60
2018-09-17T20:45:37.774Z,17.49
2018-09-17T20:48:06.306Z,17.39
2018-09-17T20:50:34.051Z,17.32
2018-09-17T20:53:03.239Z,17.33
2018-09-17T20:55:34.448Z,17.39
2018-09-17T20:58:03.105Z,17.53
2018-09-17T21:00:30.942Z,17.61
2018-09-17T21:02:59.893Z,17.53
2018-09-17T21:05:29.157Z,17.49
2018-09-17T21:07:56.909Z,17.45
2018-09-17T21:10:25.858Z,17.38
2018-09-17T21:12:54.242Z,17.08
2018-09-17T21:15:23.605Z,16.70
2018-09-17T21:17:51.707Z,16.51
2018-09-17T21:20:20.044Z,16.48
2018-09-17T21:22:48.456Z,16.50
2018-09-17T21:25:16.823Z,16.50
2018-09-17T21:27:45.465Z,16.52
2018-09-17T21:30:14.164Z,16.51
2018-09-17T21:32:41.359Z,16.47
2018-09-17T21:35:09.776Z,16.46
2018-09-17T21:37:40.005Z,16.49
2018-09-17T21:40:06.405Z,16.61
2018-09-17T21:42:35.703Z,16.74
2018-09-17T21:45:04.025Z,16.80
2018-09-17T21:47:31.781Z,16.66
2018-09-17T21:50:00.685Z,16.51
2018-09-17T21:52:29.027Z,16.24
2018-09-17T21:54:57.344Z,16.00
2018-09-17T21:57:25.668Z,15.93
2018-09-17T21:59:53.998Z,15.94
2018-09-17T22:02:22.378Z,15.94
2018-09-17T22:04:50.076Z,15.95
2018-09-17T22:07:18.994Z,15.97
2018-09-17T22:09:47.309Z,15.95
2018-09-17T22:12:21.842Z,15.90
2018-09-17T22:14:50.194Z,15.84
2018-09-17T22:17:18.521Z,15.82
2018-09-17T22:19:46.888Z,15.73
2018-09-17T22:22:15.148Z,15.68
2018-09-17T22:24:42.942Z,15.68
2018-09-17T22:27:11.214Z,15.73
2018-09-17T22:29:39.528Z,15.74
2018-09-17T22:32:08.431Z,15.73
2018-09-17T22:34:36.182Z,15.75
2018-09-17T22:37:05.090Z,15.74
2018-09-17T22:39:33.403Z,15.65
2018-09-17T22:42:01.760Z,15.61
2018-09-17T22:44:29.452Z,15.63
2018-09-17T22:46:58.344Z,15.64
2018-09-17T22:49:26.692Z,15.61
2018-09-17T22:51:54.423Z,15.55
2018-09-17T22:54:23.314Z,15.53
2018-09-17T22:56:51.058Z,15.50
2018-09-17T22:59:19.953Z,15.47
2018-09-17T23:01:47.684Z,15.39
2018-09-17T23:04:16.589Z,15.35
2018-09-17T23:06:44.345Z,15.35
2018-09-17T23:09:13.238Z,15.40
2018-09-17T23:11:41.557Z,15.41
2018-09-17T23:14:09.871Z,15.40
2018-09-17T23:16:38.196Z,15.38
2018-09-17T23:19:05.934Z,15.34
2018-09-17T23:21:34.250Z,15.29
2018-09-17T23:24:02.576Z,15.24
2018-09-17T23:26:31.479Z,15.27
2018-09-17T23:28:59.794Z,15.38
2018-09-17T23:31:27.536Z,15.49
2018-09-17T23:33:55.869Z,15.62
2018-09-17T23:36:24.209Z,15.72
2018-09-17T23:38:52.521Z,15.78
2018-09-17T23:41:21.430Z,15.82
2018-09-17T23:43:49.177Z,15.87
2018-09-17T23:46:18.099Z,15.91
2018-09-17T23:48:46.429Z,15.94
2018-09-17T23:51:14.752Z,15.96
2018-09-17T23:53:42.509Z,16.00
2018-09-17T23:56:10.941Z,15.93
2018-09-17T23:58:39.160Z,15.92
